Time;durP1;ratioP1;P1;durP2;ratioP2;P2;SDS_P1;SDS_P2;PMS_P1;PMS_P2;Temp;Humidity;BMP_temperature;BMP_pressure;BME280_temperature;BME280_humidity;BME280_pressure;Samples;Min_cycle;Max_cycle;Signal;HPM_P1;HPM_P2
2023/08/10 00:00:30;;;;;;;8.07;3.80;;;14.80;99.90;;;;;;5034731;28;21006;-70
2023/08/10 00:02:59;;;;;;;5.57;3.60;;;14.80;99.90;;;;;;5036419;28;20459;-70
2023/08/10 00:05:27;;;;;;;4.67;3.73;;;14.80;99.90;;;;;;5036110;28;20466;-70
2023/08/10 00:07:55;;;;;;;4.03;3.73;;;14.70;99.90;;;;;;5035975;28;20435;-70
2023/08/10 00:10:23;;;;;;;4.30;3.60;;;14.70;99.90;;;;;;5036016;28;20493;-70
2023/08/10 00:12:51;;;;;;;4.13;3.10;;;14.70;99.90;;;;;;5035605;28;20496;-70
2023/08/10 00:15:21;;;;;;;5.50;3.77;;;14.70;99.90;;;;;;5035925;28;20462;-71
2023/08/10 00:17:50;;;;;;;6.20;3.83;;;14.70;99.90;;;;;;5035941;28;20438;-70
2023/08/10 00:20:18;;;;;;;7.20;3.60;;;14.60;99.90;;;;;;5035621;28;20485;-70
2023/08/10 00:22:46;;;;;;;8.70;3.97;;;14.60;99.90;;;;;;5034332;28;20562;-71
2023/08/10 00:25:14;;;;;;;4.43;3.70;;;14.60;99.90;;;;;;5035716;28;21015;-70
2023/08/10 00:27:42;;;;;;;5.60;3.67;;;14.50;99.90;;;;;;5035898;28;20924;-70
2023/08/10 00:30:11;;;;;;;6.73;4.20;;;14.50;99.90;;;;;;5034192;28;20447;-70
2023/08/10 00:32:41;;;;;;;8.03;4.20;;;14.50;99.90;;;;;;5035596;28;20457;-70
2023/08/10 00:35:10;;;;;;;7.53;4.10;;;14.50;99.90;;;;;;5035397;28;20788;-71
2023/08/10 00:37:38;;;;;;;4.80;4.20;;;14.50;99.90;;;;;;5034034;28;20859;-70
2023/08/10 00:40:09;;;;;;;4.87;3.97;;;14.40;99.90;;;;;;5035228;28;20435;-70
2023/08/10 00:42:37;;;;;;;4.57;3.80;;;14.40;99.90;;;;;;5035748;28;20419;-70
2023/08/10 00:45:06;;;;;;;4.87;4.00;;;14.40;99.90;;;;;;5034186;28;20538;-71
2023/08/10 00:47:34;;;;;;;5.73;3.80;;;14.30;99.90;;;;;;5035494;28;20924;-71
2023/08/10 00:50:05;;;;;;;6.03;4.40;;;14.30;99.90;;;;;;5034036;28;20866;-70
2023/08/10 00:52:34;;;;;;;4.80;4.07;;;14.30;99.90;;;;;;5033915;28;20944;-71
2023/08/10 00:55:02;;;;;;;5.33;4.57;;;14.20;99.90;;;;;;5035064;28;20432;-71
2023/08/10 00:57:31;;;;;;;7.33;4.60;;;14.20;99.90;;;;;;5035031;28;20431;-70
2023/08/10 01:00:00;;;;;;;5.33;4.10;;;14.20;99.90;;;;;;5034490;28;20558;-70
2023/08/10 01:02:28;;;;;;;6.27;4.57;;;14.10;99.90;;;;;;5033621;28;21031;-70
2023/08/10 01:04:57;;;;;;;7.00;6.40;;;14.10;99.90;;;;;;5034728;28;20946;-71
2023/08/10 01:07:35;;;;;;;9.27;8.00;;;14.10;99.90;;;;;;5033399;28;20467;-70
2023/08/10 01:10:11;;;;;;;7.03;5.40;;;14.10;99.90;;;;;;5035431;28;20470;-70
2023/08/10 01:12:45;;;;;;;5.20;4.70;;;14.00;99.90;;;;;;5033446;28;20459;-71
2023/08/10 01:15:18;;;;;;;5.77;4.30;;;14.00;99.90;;;;;;5033470;28;20470;-70
2023/08/10 01:17:52;;;;;;;6.57;4.47;;;14.00;99.90;;;;;;5033492;28;20466;-70
2023/08/10 01:20:21;;;;;;;5.53;5.00;;;14.00;99.90;;;;;;5035288;28;20465;-70
2023/08/10 01:22:56;;;;;;;5.97;4.90;;;14.00;99.90;;;;;;5033391;28;20573;-70
2023/08/10 01:25:26;;;;;;;8.10;4.80;;;13.90;99.90;;;;;;5033287;28;20442;-70
2023/08/10 01:27:55;;;;;;;7.27;5.00;;;13.90;99.90;;;;;;5033872;28;20467;-70
2023/08/10 01:30:24;;;;;;;5.63;4.90;;;13.90;99.90;;;;;;5034581;28;20489;-70
2023/08/10 01:32:52;;;;;;;5.70;5.20;;;13.90;99.90;;;;;;5033121;28;20470;-69
2023/08/10 01:35:21;;;;;;;6.23;5.40;;;13.90;99.90;;;;;;5034596;28;20466;-71
2023/08/10 01:37:49;;;;;;;5.97;5.40;;;13.90;99.90;;;;;;5033163;28;20450;-70
2023/08/10 01:40:17;;;;;;;8.80;5.20;;;13.80;99.90;;;;;;5034460;28;20478;-70
2023/08/10 01:42:47;;;;;;;9.20;6.10;;;13.80;99.90;;;;;;5033077;28;20467;-70
2023/08/10 01:45:15;;;;;;;8.57;6.00;;;13.80;99.90;;;;;;5034730;28;20453;-70
2023/08/10 01:47:52;;;;;;;6.30;5.37;;;13.80;99.90;;;;;;5033132;28;20471;-70
2023/08/10 01:50:22;;;;;;;7.33;5.23;;;13.80;99.90;;;;;;5033192;28;20439;-70
2023/08/10 01:52:55;;;;;;;9.33;5.73;;;13.80;99.90;;;;;;5032486;28;20471;-70
2023/08/10 01:55:23;;;;;;;8.40;6.37;;;13.80;99.90;;;;;;5034422;28;20415;-70
2023/08/10 01:57:53;;;;;;;6.70;6.00;;;13.80;99.90;;;;;;5032899;28;20439;-70
2023/08/10 02:00:21;;;;;;;6.50;5.90;;;13.80;99.90;;;;;;5032848;28;20864;-70
2023/08/10 02:02:49;;;;;;;6.77;6.17;;;13.80;99.90;;;;;;5032902;28;20467;-70
2023/08/10 02:05:17;;;;;;;6.37;5.77;;;13.80;99.90;;;;;;5034053;28;20439;-70
2023/08/10 02:07:49;;;;;;;9.17;6.63;;;13.80;99.90;;;;;;5032921;28;20840;-70
2023/08/10 02:10:17;;;;;;;7.50;6.70;;;13.80;99.90;;;;;;5034030;28;20467;-70
2023/08/10 02:12:45;;;;;;;7.20;6.40;;;13.80;99.90;;;;;;5032830;28;20478;-70
2023/08/10 02:15:15;;;;;;;7.37;6.37;;;13.70;99.90;;;;;;5032992;28;20443;-70
2023/08/10 02:17:44;;;;;;;8.53;6.03;;;13.70;99.90;;;;;;5032985;28;20826;-70
2023/08/10 02:20:13;;;;;;;7.27;6.20;;;13.70;99.90;;;;;;5033602;28;20445;-70
2023/08/10 02:22:47;;;;;;;12.07;6.70;;;13.70;99.90;;;;;;5034115;28;20563;-70
2023/08/10 02:25:15;;;;;;;8.17;6.70;;;13.70;99.90;;;;;;5034027;28;20419;-70
2023/08/10 02:27:44;;;;;;;7.87;6.07;;;13.70;99.90;;;;;;5034101;28;20467;-70
2023/08/10 02:30:13;;;;;;;6.13;5.47;;;13.70;99.90;;;;;;5034057;28;20936;-70
2023/08/10 02:32:42;;;;;;;7.17;6.43;;;13.70;99.90;;;;;;5033459;28;20454;-70
2023/08/10 02:35:10;;;;;;;9.57;6.40;;;13.60;99.90;;;;;;5032788;28;20447;-70
2023/08/10 02:37:39;;;;;;;7.77;6.97;;;13.60;99.90;;;;;;5032734;28;20542;-70
2023/08/10 02:40:10;;;;;;;7.50;6.60;;;13.60;99.90;;;;;;5032412;28;20475;-70
2023/08/10 02:42:39;;;;;;;9.43;6.77;;;13.60;99.90;;;;;;5033593;28;20966;-70
2023/08/10 02:45:08;;;;;;;6.40;5.90;;;13.60;99.90;;;;;;5032275;28;20493;-70
2023/08/10 02:47:36;;;;;;;8.43;7.27;;;13.60;99.90;;;;;;5032094;28;20972;-70
2023/08/10 02:50:07;;;;;;;7.80;7.00;;;13.60;99.90;;;;;;5032177;28;20529;-70
2023/08/10 02:52:37;;;;;;;7.50;6.87;;;13.50;99.90;;;;;;5033813;28;20419;-70
2023/08/10 02:55:07;;;;;;;7.60;6.90;;;13.50;99.90;;;;;;5033711;28;20445;-70
2023/08/10 02:57:35;;;;;;;10.17;7.30;;;13.50;99.90;;;;;;5033545;28;20443;-70
2023/08/10 03:00:06;;;;;;;7.40;6.70;;;13.50;99.90;;;;;;5032620;28;21015;-70
2023/08/10 03:02:35;;;;;;;7.23;6.63;;;13.50;99.90;;;;;;5033912;28;20514;-70
2023/08/10 03:05:09;;;;;;;9.00;8.13;;;13.50;99.90;;;;;;5036673;28;20485;-70
2023/08/10 03:07:37;;;;;;;8.20;7.33;;;13.50;99.90;;;;;;5036334;28;20463;-70
2023/08/10 03:10:07;;;;;;;9.23;7.50;;;13.50;99.90;;;;;;5036463;28;20457;-70
2023/08/10 03:12:39;;;;;;;10.70;7.80;;;13.40;99.90;;;;;;5036299;28;20450;-70
2023/08/10 03:15:11;;;;;;;9.63;7.37;;;13.40;99.90;;;;;;5036697;28;20443;-70
2023/08/10 03:17:40;;;;;;;10.90;8.63;;;13.40;99.90;;;;;;5036410;28;20530;-70
2023/08/10 03:20:16;;;;;;;7.90;7.10;;;13.40;99.90;;;;;;5036343;28;20473;-70
2023/08/10 03:22:46;;;;;;;8.43;7.63;;;13.40;99.90;;;;;;5036415;28;20901;-70
2023/08/10 03:25:15;;;;;;;9.60;8.30;;;13.30;99.90;;;;;;5037500;28;20435;-70
2023/08/10 03:27:44;;;;;;;8.80;7.93;;;13.30;99.90;;;;;;5036206;28;20813;-70
2023/08/10 03:30:15;;;;;;;9.37;8.00;;;13.30;99.90;;;;;;5036247;28;20973;-70
2023/08/10 03:32:44;;;;;;;9.50;8.33;;;13.30;99.90;;;;;;5037119;28;20967;-70
2023/08/10 03:35:14;;;;;;;11.13;9.17;;;13.30;99.90;;;;;;5037335;28;20435;-70
2023/08/10 03:37:43;;;;;;;9.57;8.67;;;13.20;99.90;;;;;;5036145;28;20901;-70
2023/08/10 03:40:12;;;;;;;10.00;8.17;;;13.20;99.90;;;;;;5035742;28;20457;-70
2023/08/10 03:42:40;;;;;;;9.67;8.87;;;13.20;99.90;;;;;;5037120;28;20484;-70
2023/08/10 03:45:10;;;;;;;10.43;9.47;;;13.20;99.90;;;;;;5035895;28;20447;-70
2023/08/10 03:47:39;;;;;;;9.73;8.40;;;13.20;99.90;;;;;;5035645;28;20474;-70
2023/08/10 03:50:08;;;;;;;8.90;8.00;;;13.10;99.90;;;;;;5035664;28;20956;-70
2023/08/10 03:52:37;;;;;;;9.47;8.67;;;13.10;99.90;;;;;;5035306;28;21027;-70
2023/08/10 03:55:06;;;;;;;10.33;9.43;;;13.10;99.90;;;;;;5035557;28;20446;-70
2023/08/10 03:57:34;;;;;;;9.43;8.63;;;13.10;99.90;;;;;;5035375;28;20451;-70
2023/08/10 04:00:04;;;;;;;10.73;9.63;;;13.10;99.90;;;;;;5035430;28;20446;-70
2023/08/10 04:02:43;;;;;;;11.07;10.00;;;13.10;99.90;;;;;;5036484;28;20470;-70
2023/08/10 04:05:17;;;;;;;15.93;10.47;;;13.10;99.90;;;;;;5035927;28;20443;-70
2023/08/10 04:07:47;;;;;;;10.73;9.70;;;13.10;99.90;;;;;;5035212;28;20934;-70
2023/08/10 04:10:16;;;;;;;10.53;9.57;;;13.10;99.90;;;;;;5036875;28;20442;-70
2023/08/10 04:12:44;;;;;;;10.27;9.27;;;13.10;99.90;;;;;;5034476;28;20570;-70
2023/08/10 04:15:12;;;;;;;12.60;9.60;;;13.00;99.90;;;;;;5034480;28;20450;-70
2023/08/10 04:17:41;;;;;;;11.10;9.40;;;13.00;99.90;;;;;;5034864;28;20824;-70
2023/08/10 04:20:10;;;;;;;10.30;9.33;;;13.10;99.90;;;;;;5034821;28;20956;-70
2023/08/10 04:22:38;;;;;;;10.93;9.87;;;13.00;99.90;;;;;;5035902;28;20439;-70
2023/08/10 04:25:08;;;;;;;11.73;9.93;;;13.00;99.90;;;;;;5035779;28;20470;-70
2023/08/10 04:27:37;;;;;;;10.77;9.77;;;13.00;99.90;;;;;;5036064;28;20498;-70
2023/08/10 04:30:08;;;;;;;11.03;9.30;;;13.00;99.90;;;;;;5036001;28;20449;-70
2023/08/10 04:32:37;;;;;;;10.50;9.60;;;13.00;99.90;;;;;;5036214;28;20793;-70
2023/08/10 04:35:06;;;;;;;10.43;9.43;;;13.00;99.90;;;;;;5034674;28;20847;-70
2023/08/10 04:37:34;;;;;;;9.97;9.10;;;13.00;99.90;;;;;;5035769;28;20446;-70
2023/08/10 04:40:07;;;;;;;10.47;9.57;;;13.00;99.90;;;;;;5035511;28;20431;-70
2023/08/10 04:42:39;;;;;;;10.73;9.83;;;13.00;99.90;;;;;;5035558;28;20419;-70
2023/08/10 04:45:10;;;;;;;11.80;10.80;;;13.00;99.90;;;;;;5035581;28;20925;-70
2023/08/10 04:47:38;;;;;;;10.40;9.57;;;12.90;99.90;;;;;;5035179;28;20815;-70
2023/08/10 04:50:08;;;;;;;11.33;9.60;;;12.90;99.90;;;;;;5035440;28;20435;-70
2023/08/10 04:52:36;;;;;;;11.30;10.07;;;12.90;99.90;;;;;;5035050;28;20579;-70
2023/08/10 04:55:05;;;;;;;11.17;10.00;;;13.00;99.90;;;;;;5035027;28;20427;-70
2023/08/10 04:57:33;;;;;;;11.30;10.13;;;12.90;99.90;;;;;;5035126;28;20971;-70
2023/08/10 05:00:08;;;;;;;13.00;10.27;;;12.90;99.90;;;;;;5035582;28;20867;-70
2023/08/10 05:02:38;;;;;;;10.73;9.67;;;13.00;99.90;;;;;;5035297;28;20453;-70
2023/08/10 05:05:07;;;;;;;19.93;11.07;;;13.00;99.90;;;;;;5035493;28;20446;-70
2023/08/10 05:07:37;;;;;;;10.33;9.40;;;13.00;99.90;;;;;;5034938;28;20525;-70
2023/08/10 05:10:08;;;;;;;11.30;10.20;;;13.00;99.90;;;;;;5034787;28;20435;-70
2023/08/10 05:12:38;;;;;;;11.20;9.63;;;13.00;99.90;;;;;;5034872;28;20449;-70
2023/08/10 05:15:09;;;;;;;10.63;9.63;;;13.00;99.90;;;;;;5034903;28;20435;-70
2023/08/10 05:17:39;;;;;;;11.63;10.10;;;13.00;99.90;;;;;;5035329;28;20423;-70
2023/08/10 05:20:10;;;;;;;11.67;10.67;;;13.00;99.90;;;;;;5034949;28;20954;-70
2023/08/10 05:22:40;;;;;;;11.80;10.60;;;13.00;99.90;;;;;;5034976;28;20843;-70
2023/08/10 05:25:09;;;;;;;11.53;10.43;;;13.00;99.90;;;;;;5035127;28;20446;-70
2023/08/10 05:27:38;;;;;;;10.67;9.47;;;13.00;99.90;;;;;;5033829;28;20534;-70
2023/08/10 05:30:11;;;;;;;11.33;9.97;;;13.00;99.90;;;;;;5034947;28;20489;-69
2023/08/10 05:32:43;;;;;;;10.43;9.60;;;13.10;99.90;;;;;;5034960;28;20423;-70
2023/08/10 05:35:12;;;;;;;10.10;9.03;;;13.10;99.90;;;;;;5033400;28;20439;-69
2023/08/10 05:37:41;;;;;;;10.37;9.47;;;13.10;99.90;;;;;;5034515;28;20526;-69
2023/08/10 05:40:11;;;;;;;11.07;8.93;;;13.10;99.90;;;;;;5034564;28;20577;-70
2023/08/10 05:42:41;;;;;;;9.23;8.43;;;13.20;99.90;;;;;;5034607;28;20509;-70
2023/08/10 05:45:15;;;;;;;9.03;8.10;;;13.20;99.90;;;;;;5034805;28;20870;-70
2023/08/10 05:47:45;;;;;;;8.43;6.30;;;13.20;99.90;;;;;;5034601;28;20427;-70
2023/08/10 05:50:13;;;;;;;9.13;8.17;;;13.30;99.90;;;;;;5034464;28;20439;-69
2023/08/10 05:52:42;;;;;;;8.23;7.47;;;13.30;99.90;;;;;;5034539;28;20642;-69
2023/08/10 05:55:11;;;;;;;10.73;9.53;;;13.40;99.90;;;;;;5034510;28;20520;-70
2023/08/10 05:57:39;;;;;;;10.33;8.40;;;13.40;99.90;;;;;;5034412;28;20538;-69
2023/08/10 06:00:09;;;;;;;10.70;8.80;;;13.50;99.90;;;;;;5034330;28;20427;-70
2023/08/10 06:02:42;;;;;;;8.97;8.10;;;13.60;99.90;;;;;;5033266;28;20458;-70
2023/08/10 06:05:12;;;;;;;10.17;9.10;;;13.70;99.90;;;;;;5033499;28;20435;-70
2023/08/10 06:07:41;;;;;;;9.33;7.87;;;13.90;99.90;;;;;;5034738;28;20443;-69
2023/08/10 06:10:09;;;;;;;9.87;6.80;;;14.10;99.90;;;;;;5034573;28;20498;-70
2023/08/10 06:12:37;;;;;;;12.23;10.90;;;14.30;99.90;;;;;;5034630;28;20855;-70
2023/08/10 06:15:06;;;;;;;11.77;6.73;;;14.50;99.90;;;;;;5033396;28;20504;-70
2023/08/10 06:17:34;;;;;;;7.40;6.03;;;14.70;99.90;;;;;;5035072;28;20435;-70
2023/08/10 06:20:09;;;;;;;11.00;5.80;;;14.90;99.90;;;;;;5034967;28;20453;-70
2023/08/10 06:22:39;;;;;;;12.40;10.80;;;15.10;99.90;;;;;;5034677;28;20458;-70
2023/08/10 06:25:08;;;;;;;6.90;5.90;;;15.30;99.90;;;;;;5034568;28;20924;-70
2023/08/10 06:27:37;;;;;;;11.80;5.23;;;15.50;99.90;;;;;;5034942;28;20450;-70
2023/08/10 06:30:06;;;;;;;7.60;5.10;;;15.70;99.90;;;;;;5033720;28;20477;-70
2023/08/10 06:32:35;;;;;;;58.13;7.60;;;15.90;99.90;;;;;;5034358;28;20802;-70
2023/08/10 06:35:05;;;;;;;10.93;5.00;;;16.10;99.90;;;;;;5034295;28;20417;-70
2023/08/10 06:37:33;;;;;;;6.13;4.27;;;16.30;99.90;;;;;;5035209;28;20488;-70
2023/08/10 06:40:06;;;;;;;8.73;5.20;;;16.50;99.90;;;;;;5034739;28;20841;-70
2023/08/10 06:42:35;;;;;;;6.10;4.47;;;16.70;99.90;;;;;;5035103;28;20519;-70
2023/08/10 06:45:10;;;;;;;6.67;3.83;;;16.90;99.90;;;;;;5032927;28;20446;-70
2023/08/10 06:47:38;;;;;;;7.53;3.10;;;17.00;99.90;;;;;;5034183;28;20402;-70
2023/08/10 06:50:09;;;;;;;5.70;3.70;;;17.20;99.90;;;;;;5034206;28;20495;-70
2023/08/10 06:52:37;;;;;;;4.10;2.47;;;17.30;99.90;;;;;;5034119;28;20397;-70
2023/08/10 06:55:06;;;;;;;5.93;3.03;;;17.40;99.90;;;;;;5034291;28;20442;-70
2023/08/10 06:57:36;;;;;;;8.43;3.47;;;17.60;99.90;;;;;;5034059;28;20413;-70
2023/08/10 07:00:07;;;;;;;6.03;2.60;;;17.70;99.90;;;;;;5034572;28;20601;-70
2023/08/10 07:02:38;;;;;;;4.27;2.27;;;17.80;99.90;;;;;;5033012;28;20477;-69
2023/08/10 07:05:10;;;;;;;215.90;144.67;;;17.90;99.90;;;;;;5033846;28;20457;-69
2023/08/10 07:07:38;;;;;;;496.33;473.17;;;18.10;99.90;;;;;;5034461;28;20911;-70
2023/08/10 07:10:09;;;;;;;711.83;679.43;;;18.20;99.90;;;;;;5034044;28;20462;-69
2023/08/10 07:12:37;;;;;;;913.90;863.93;;;18.30;99.90;;;;;;5032443;28;20463;-69
2023/08/10 07:15:08;;;;;;;994.80;932.30;;;18.30;99.90;;;;;;5032392;28;20449;-69
2023/08/10 07:17:36;;;;;;;1074.97;995.20;;;18.40;99.90;;;;;;5033360;28;20446;-69
2023/08/10 07:20:06;;;;;;;1134.97;999.90;;;18.50;99.90;;;;;;5034645;28;20430;-69
2023/08/10 07:22:36;;;;;;;1172.33;999.90;;;18.50;99.90;;;;;;5032300;28;20463;-69
2023/08/10 07:25:08;;;;;;;1172.47;999.90;;;18.60;99.90;;;;;;5033966;28;20900;-69
2023/08/10 07:27:36;;;;;;;1178.43;999.90;;;18.60;99.90;;;;;;5033519;28;20534;-69
2023/08/10 07:30:06;;;;;;;1561.00;999.90;;;18.60;99.90;;;;;;5033725;28;20544;-69
2023/08/10 07:32:34;;;;;;;1655.73;999.90;;;18.60;99.90;;;;;;5033535;28;20427;-69
2023/08/10 07:35:02;;;;;;;1883.43;999.90;;;18.70;99.90;;;;;;5031900;28;20459;-69
2023/08/10 07:37:30;;;;;;;1999.90;999.90;;;18.70;99.90;;;;;;5034067;28;20477;-69
2023/08/10 07:40:00;;;;;;;1999.90;999.90;;;18.80;99.90;;;;;;5034178;28;20467;-69
2023/08/10 07:42:28;;;;;;;1999.90;999.90;;;18.80;99.90;;;;;;5033240;28;20435;-70
2023/08/10 07:44:56;;;;;;;1999.90;999.90;;;18.90;99.90;;;;;;5033435;28;20450;-70
2023/08/10 07:47:24;;;;;;;1999.90;999.90;;;18.90;99.90;;;;;;5033085;28;20434;-69
2023/08/10 07:49:52;;;;;;;1999.90;999.90;;;18.90;99.90;;;;;;5033118;28;20474;-69
2023/08/10 07:52:21;;;;;;;1999.90;999.90;;;18.90;99.90;;;;;;5037106;28;20525;-69
2023/08/10 07:54:49;;;;;;;1999.90;999.90;;;18.90;99.90;;;;;;5036857;28;20530;-69
2023/08/10 07:57:18;;;;;;;1999.90;999.90;;;19.00;99.90;;;;;;5037129;28;20950;-69
2023/08/10 07:59:47;;;;;;;1981.80;999.90;;;19.00;99.90;;;;;;5035787;28;20534;-70
2023/08/10 08:02:15;;;;;;;1612.07;999.90;;;19.00;99.90;;;;;;5037783;28;20876;-69
2023/08/10 08:04:43;;;;;;;1467.30;999.90;;;19.00;99.90;;;;;;5036604;28;20467;-70
2023/08/10 08:07:11;;;;;;;1370.53;999.90;;;19.00;99.90;;;;;;5037297;28;20518;-70
2023/08/10 08:09:40;;;;;;;1183.50;994.17;;;18.90;99.90;;;;;;5035275;28;20524;-69
2023/08/10 08:12:08;;;;;;;1296.10;999.90;;;18.80;99.90;;;;;;5036404;28;20450;-70
2023/08/10 08:14:37;;;;;;;1012.10;909.07;;;18.80;99.90;;;;;;5036276;28;20486;-70
2023/08/10 08:17:05;;;;;;;868.80;783.70;;;18.80;99.90;;;;;;5035306;28;20451;-70
2023/08/10 08:19:36;;;;;;;892.80;807.60;;;18.80;99.90;;;;;;5035147;28;20434;-70
2023/08/10 08:22:04;;;;;;;978.47;882.23;;;18.80;99.90;;;;;;5036458;28;20500;-70
2023/08/10 08:24:33;;;;;;;903.47;817.63;;;18.90;99.90;;;;;;5036116;28;20465;-70
2023/08/10 08:27:01;;;;;;;851.23;774.67;;;19.00;99.90;;;;;;5036337;28;20522;-70
2023/08/10 08:29:29;;;;;;;913.80;832.63;;;19.10;99.90;;;;;;5036298;28;20500;-70
2023/08/10 08:31:59;;;;;;;687.33;634.03;;;19.10;99.90;;;;;;5036948;28;20530;-70
2023/08/10 08:34:27;;;;;;;863.37;775.47;;;19.10;99.90;;;;;;5036310;28;21006;-70
2023/08/10 08:36:55;;;;;;;1044.27;846.70;;;19.10;99.90;;;;;;5034620;28;20505;-70
2023/08/10 08:39:23;;;;;;;983.57;880.33;;;19.10;99.90;;;;;;5036320;28;21026;-70
2023/08/10 08:41:51;;;;;;;958.03;855.37;;;19.10;99.90;;;;;;5036066;28;20431;-70
2023/08/10 08:44:20;;;;;;;863.23;774.30;;;19.10;99.90;;;;;;5034292;28;20984;-70
2023/08/10 08:46:49;;;;;;;619.90;566.77;;;19.10;99.90;;;;;;5035717;28;20518;-70
2023/08/10 08:49:19;;;;;;;434.93;406.83;;;19.00;99.90;;;;;;5034246;28;20486;-71
2023/08/10 08:51:48;;;;;;;429.00;401.93;;;19.00;99.90;;;;;;5035568;28;20566;-70
2023/08/10 08:54:18;;;;;;;504.03;469.67;;;19.00;99.90;;;;;;5035526;28;20504;-70
2023/08/10 08:56:46;;;;;;;268.23;251.30;;;19.10;99.90;;;;;;5035465;28;20443;-70
2023/08/10 08:59:14;;;;;;;232.77;220.63;;;19.10;99.90;;;;;;5035717;28;21007;-71
2023/08/10 09:01:42;;;;;;;238.00;225.93;;;19.10;99.90;;;;;;5035947;28;20920;-71
2023/08/10 09:04:10;;;;;;;261.80;248.60;;;19.20;99.90;;;;;;5035582;28;20504;-70
2023/08/10 09:06:40;;;;;;;278.17;261.37;;;19.30;99.90;;;;;;5036046;28;20485;-71
2023/08/10 09:09:08;;;;;;;405.17;379.90;;;19.40;99.90;;;;;;5034710;28;20478;-71
2023/08/10 09:11:36;;;;;;;261.13;247.00;;;19.40;99.90;;;;;;5034508;28;21098;-71
2023/08/10 09:14:08;;;;;;;286.33;271.63;;;19.50;99.90;;;;;;5034845;28;20557;-70
2023/08/10 09:16:38;;;;;;;302.83;288.20;;;19.50;99.90;;;;;;5036230;28;20447;-71
2023/08/10 09:19:12;;;;;;;262.23;248.60;;;19.50;99.90;;;;;;5035977;28;20437;-71
2023/08/10 09:21:41;;;;;;;108.93;103.07;;;19.40;99.90;;;;;;5036334;28;20450;-71
2023/08/10 09:24:10;;;;;;;163.13;154.60;;;19.40;99.90;;;;;;5036012;28;20499;-71
2023/08/10 09:26:40;;;;;;;172.67;163.67;;;19.30;99.90;;;;;;5036247;28;20447;-71
2023/08/10 09:29:09;;;;;;;149.23;140.30;;;19.30;99.90;;;;;;5036160;28;20419;-71
2023/08/10 09:31:42;;;;;;;154.87;147.30;;;19.30;99.90;;;;;;5035734;28;20605;-71
2023/08/10 09:34:13;;;;;;;84.70;80.80;;;19.40;99.90;;;;;;5034609;28;20462;-71
2023/08/10 09:36:53;;;;;;;107.37;102.43;;;19.40;99.90;;;;;;5036462;28;20434;-71
2023/08/10 09:39:21;;;;;;;151.23;143.70;;;19.40;99.90;;;;;;5035994;28;20426;-70
2023/08/10 09:41:55;;;;;;;126.33;120.50;;;19.50;99.90;;;;;;5035249;28;20443;-71
2023/08/10 09:44:23;;;;;;;131.57;125.73;;;19.50;99.90;;;;;;5035983;28;20451;-71
2023/08/10 09:46:58;;;;;;;83.47;79.30;;;19.40;99.90;;;;;;5035902;28;20800;-71
2023/08/10 09:49:26;;;;;;;96.30;91.37;;;19.40;99.90;;;;;;5035843;28;20427;-71
2023/08/10 09:51:58;;;;;;;140.03;133.37;;;19.40;99.90;;;;;;5035607;28;20498;-71
2023/08/10 09:54:27;;;;;;;116.33;109.90;;;19.50;99.90;;;;;;5034470;28;21063;-70
2023/08/10 09:56:56;;;;;;;109.17;103.87;;;19.60;99.90;;;;;;5035815;28;20466;-71
2023/08/10 09:59:25;;;;;;;113.53;108.47;;;19.60;99.90;;;;;;5035987;28;20529;-71
2023/08/10 10:01:53;;;;;;;105.47;100.53;;;19.70;99.90;;;;;;5036185;28;20518;-71
2023/08/10 10:04:23;;;;;;;186.47;177.17;;;19.70;99.90;;;;;;5035456;28;20490;-71
2023/08/10 10:06:53;;;;;;;175.77;166.67;;;19.80;99.90;;;;;;5036006;28;20445;-70
2023/08/10 10:09:24;;;;;;;144.47;138.03;;;19.90;99.90;;;;;;5036150;28;20431;-71
2023/08/10 10:11:54;;;;;;;184.40;176.40;;;20.00;99.90;;;;;;5035142;28;20532;-71
2023/08/10 10:14:22;;;;;;;173.17;165.30;;;20.10;99.90;;;;;;5035130;28;20458;-71
2023/08/10 10:16:52;;;;;;;250.57;238.73;;;20.20;99.90;;;;;;5035639;28;20485;-71
2023/08/10 10:19:20;;;;;;;272.60;260.23;;;20.30;99.90;;;;;;5034103;28;20963;-71
2023/08/10 10:21:49;;;;;;;215.73;205.30;;;20.30;99.90;;;;;;5032697;28;20546;-71
2023/08/10 10:24:19;;;;;;;188.13;179.37;;;20.40;99.90;;;;;;5033996;28;20471;-71
2023/08/10 10:27:00;;;;;;;276.00;262.83;;;20.50;99.90;;;;;;5034119;28;20482;-71
2023/08/10 10:29:40;;;;;;;156.73;149.60;;;20.50;99.90;;;;;;5034156;28;20419;-71
2023/08/10 10:32:13;;;;;;;169.47;162.33;;;20.60;99.90;;;;;;5034369;28;20459;-71
2023/08/10 10:34:43;;;;;;;136.43;130.57;;;20.60;99.90;;;;;;5034047;28;20510;-71
2023/08/10 10:37:14;;;;;;;819.30;762.83;;;20.70;99.90;;;;;;5032619;28;20493;-71
2023/08/10 10:39:44;;;;;;;973.30;901.67;;;20.70;99.90;;;;;;5034313;28;20426;-71
2023/08/10 10:42:18;;;;;;;821.70;766.70;;;20.70;99.90;;;;;;5032524;28;20442;-71
2023/08/10 10:45:00;;;;;;;995.40;916.93;;;20.80;99.90;;;;;;5033950;28;20541;-71
2023/08/10 10:47:36;;;;;;;926.57;852.83;;;20.80;99.90;;;;;;5033658;28;20489;-71
2023/08/10 10:50:15;;;;;;;992.13;915.80;;;20.90;99.90;;;;;;5033984;28;20473;-70
2023/08/10 10:52:53;;;;;;;863.80;800.33;;;21.00;99.90;;;;;;5034547;28;20486;-71
2023/08/10 10:55:23;;;;;;;935.97;866.97;;;21.00;99.90;;;;;;5034201;28;20415;-70
2023/08/10 10:57:53;;;;;;;1066.23;978.33;;;21.00;99.90;;;;;;5033674;28;20536;-70
2023/08/10 11:00:24;;;;;;;1047.70;956.37;;;21.10;99.90;;;;;;5033447;28;20443;-70
2023/08/10 11:02:52;;;;;;;1057.20;961.13;;;21.10;99.90;;;;;;5034036;28;20455;-70
2023/08/10 11:05:21;;;;;;;1041.53;948.53;;;21.10;99.90;;;;;;5032021;28;20479;-70
2023/08/10 11:07:50;;;;;;;1073.03;970.33;;;21.10;99.90;;;;;;5033803;28;20485;-70
2023/08/10 11:10:21;;;;;;;1076.40;980.40;;;21.10;99.90;;;;;;5033926;28;20477;-70
2023/08/10 11:12:52;;;;;;;1094.33;991.13;;;21.10;99.90;;;;;;5033233;28;20954;-70
2023/08/10 11:15:22;;;;;;;1008.70;921.20;;;21.00;99.90;;;;;;5033089;28;20419;-71
2023/08/10 11:17:54;;;;;;;904.07;832.53;;;21.00;99.90;;;;;;5033156;28;20521;-71
2023/08/10 11:20:23;;;;;;;1026.70;940.03;;;21.00;99.90;;;;;;5033751;28;20888;-70
2023/08/10 11:22:52;;;;;;;1048.23;956.97;;;21.00;99.90;;;;;;5033728;28;20458;-70
2023/08/10 11:25:22;;;;;;;946.23;875.57;;;21.10;99.90;;;;;;5034806;28;20478;-70
2023/08/10 11:27:56;;;;;;;937.23;866.27;;;21.10;99.90;;;;;;5037124;28;20423;-71
2023/08/10 11:30:25;;;;;;;841.17;785.37;;;21.20;99.90;;;;;;5037150;28;20422;-71
2023/08/10 11:32:55;;;;;;;1016.80;940.07;;;21.20;99.90;;;;;;5036829;28;21055;-70
2023/08/10 11:35:25;;;;;;;834.27;782.63;;;21.30;99.90;;;;;;5036830;28;20803;-70
2023/08/10 11:37:54;;;;;;;846.03;793.40;;;21.30;99.90;;;;;;5036966;28;20431;-71
2023/08/10 11:40:23;;;;;;;818.17;771.83;;;21.30;99.90;;;;;;5037149;28;20860;-71
2023/08/10 11:43:04;;;;;;;846.60;794.30;;;21.40;99.90;;;;;;5037405;28;20889;-71
2023/08/10 11:45:33;;;;;;;838.37;788.40;;;21.40;99.90;;;;;;5037483;28;20477;-71
2023/08/10 11:48:01;;;;;;;945.80;878.13;;;21.30;99.90;;;;;;5035535;28;20454;-71
2023/08/10 11:50:32;;;;;;;924.00;860.13;;;21.30;99.90;;;;;;5037006;28;20434;-71
2023/08/10 11:53:10;;;;;;;1021.73;941.07;;;21.30;99.90;;;;;;5036409;28;20508;-71
2023/08/10 11:55:43;;;;;;;730.73;689.80;;;21.30;99.90;;;;;;5037176;28;20820;-71
2023/08/10 11:58:14;;;;;;;875.27;820.63;;;21.40;99.90;;;;;;5037444;28;20847;-71
2023/08/10 12:00:49;;;;;;;1020.80;944.97;;;21.40;99.90;;;;;;5036953;28;20485;-70
2023/08/10 12:03:19;;;;;;;878.37;818.47;;;21.40;99.90;;;;;;5036452;28;20451;-71
2023/08/10 12:05:54;;;;;;;900.00;839.73;;;21.40;99.90;;;;;;5037164;28;20423;-70
2023/08/10 12:08:26;;;;;;;1000.87;929.63;;;21.40;99.90;;;;;;5035874;28;20948;-71
2023/08/10 12:11:01;;;;;;;945.57;880.13;;;21.40;99.90;;;;;;5036575;28;20435;-71
2023/08/10 12:13:31;;;;;;;914.30;849.87;;;21.50;99.90;;;;;;5036381;28;20482;-71
2023/08/10 12:16:03;;;;;;;1004.63;936.00;;;21.50;99.90;;;;;;5036922;28;20428;-71
2023/08/10 12:18:31;;;;;;;921.33;854.83;;;21.60;99.90;;;;;;5036688;28;20427;-71
2023/08/10 12:21:00;;;;;;;981.73;908.70;;;21.60;99.90;;;;;;5036503;28;20446;-71
2023/08/10 12:23:28;;;;;;;988.80;918.47;;;21.70;99.90;;;;;;5036392;28;20455;-71
2023/08/10 12:25:56;;;;;;;1049.63;967.27;;;21.80;99.90;;;;;;5034975;28;20500;-71
2023/08/10 12:28:25;;;;;;;1084.97;993.50;;;21.80;99.90;;;;;;5036365;28;20443;-71
2023/08/10 12:30:54;;;;;;;1024.87;947.57;;;21.80;99.80;;;;;;5036216;28;20435;-71
2023/08/10 12:33:23;;;;;;;1102.10;999.90;;;21.90;99.90;;;;;;5036406;28;20482;-71
2023/08/10 12:35:52;;;;;;;1077.63;992.50;;;21.90;99.90;;;;;;5034872;28;20450;-71
2023/08/10 12:38:20;;;;;;;997.83;925.20;;;21.90;99.90;;;;;;5034953;28;20446;-71